Time;durP1;ratioP1;P1;durP2;ratioP2;P2;SDS_P1;SDS_P2;PMS_P1;PMS_P2;Temp;Humidity;BMP_temperature;BMP_pressure;BME280_temperature;BME280_humidity;BME280_pressure;Samples;Min_cycle;Max_cycle;Signal;HPM_P1;HPM_P2
2021/01/01 00:02:21;;;;;;;79.05;38.63;;;2.20;94.60;;;;;;4970759;28;20035;-91
2021/01/01 00:04:47;;;;;;;87.63;40.95;;;2.20;94.70;;;;;;4974647;28;20058;-92
2021/01/01 00:07:13;;;;;;;78.80;41.05;;;2.20;94.70;;;;;;4974910;28;20094;-92
2021/01/01 00:09:39;;;;;;;80.80;42.20;;;2.20;94.70;;;;;;5001711;28;20056;-92
2021/01/01 00:12:04;;;;;;;77.15;39.58;;;2.30;94.70;;;;;;4971086;28;20506;-93
2021/01/01 00:14:30;;;;;;;85.88;41.97;;;2.20;94.70;;;;;;4974003;28;20039;-93
2021/01/01 00:16:55;;;;;;;89.35;43.15;;;2.20;94.70;;;;;;4971843;28;20029;-92
2021/01/01 00:19:21;;;;;;;84.03;44.00;;;2.30;94.70;;;;;;5001393;28;20038;-91
2021/01/01 00:21:47;;;;;;;95.63;49.00;;;2.20;94.70;;;;;;4976296;28;20447;-91
2021/01/01 00:24:13;;;;;;;122.95;56.25;;;2.20;94.70;;;;;;4966808;28;20027;-91
2021/01/01 00:26:38;;;;;;;124.63;58.40;;;2.20;94.70;;;;;;4978410;28;20026;-91
2021/01/01 00:29:04;;;;;;;134.45;65.60;;;2.20;94.70;;;;;;4975042;28;20034;-91
2021/01/01 00:31:30;;;;;;;119.18;58.17;;;2.30;94.70;;;;;;4967999;28;20042;-92
2021/01/01 00:33:55;;;;;;;125.72;60.58;;;2.30;94.70;;;;;;4972608;28;20038;-91
2021/01/01 00:36:22;;;;;;;137.00;62.80;;;2.20;94.70;;;;;;4975168;28;20035;-89
2021/01/01 00:38:50;;;;;;;117.38;59.25;;;2.30;94.70;;;;;;4973280;28;20104;-89
2021/01/01 00:41:27;;;;;;;143.43;70.38;;;2.20;94.60;;;;;;4991416;28;20026;-88
2021/01/01 00:43:54;;;;;;;165.02;84.75;;;2.20;94.60;;;;;;4975584;28;20027;-89
2021/01/01 00:46:20;;;;;;;187.80;90.68;;;2.20;94.60;;;;;;5006145;28;20122;-89
2021/01/01 00:48:46;;;;;;;171.30;87.03;;;2.20;94.70;;;;;;4971119;28;20027;-89
2021/01/01 00:51:12;;;;;;;165.48;85.88;;;2.20;94.70;;;;;;5005998;28;20038;-89
2021/01/01 00:53:37;;;;;;;185.07;92.72;;;2.20;94.70;;;;;;4973529;28;20033;-89
2021/01/01 00:56:03;;;;;;;186.00;94.72;;;2.20;94.70;;;;;;4988411;28;20584;-89
2021/01/01 00:58:28;;;;;;;179.50;92.00;;;2.20;94.70;;;;;;4973366;28;20046;-90
2021/01/01 01:00:54;;;;;;;191.63;96.65;;;2.20;94.70;;;;;;4988158;28;20462;-89
2021/01/01 01:03:19;;;;;;;175.93;90.13;;;2.20;94.70;;;;;;4983181;28;20526;-90
2021/01/01 01:05:45;;;;;;;164.95;85.32;;;2.20;94.70;;;;;;5004813;28;20030;-90
2021/01/01 01:08:10;;;;;;;167.88;82.03;;;2.20;94.70;;;;;;4977930;28;20058;-90
2021/01/01 01:10:36;;;;;;;161.60;80.47;;;2.20;94.70;;;;;;4973472;28;20057;-90
2021/01/01 01:13:01;;;;;;;157.07;78.60;;;2.10;94.70;;;;;;4971926;28;20427;-89
2021/01/01 01:15:27;;;;;;;149.25;77.07;;;2.10;94.80;;;;;;5006170;28;20094;-89
2021/01/01 01:17:56;;;;;;;156.45;77.80;;;2.10;94.80;;;;;;4971031;28;20023;-93
2021/01/01 01:20:25;;;;;;;165.52;81.57;;;2.10;94.90;;;;;;4960892;28;20141;-93
2021/01/01 01:22:51;;;;;;;165.73;79.38;;;2.10;94.90;;;;;;4969964;28;20638;-92
2021/01/01 01:25:17;;;;;;;156.38;78.95;;;2.10;94.90;;;;;;4972580;28;20113;-91
2021/01/01 01:27:42;;;;;;;147.88;77.70;;;2.00;94.80;;;;;;4968415;28;20033;-91
2021/01/01 01:30:08;;;;;;;150.10;75.75;;;2.00;94.90;;;;;;4994877;28;20038;-91
2021/01/01 01:32:34;;;;;;;149.70;72.32;;;2.00;94.90;;;;;;5005401;28;20471;-90
2021/01/01 01:34:59;;;;;;;162.07;78.53;;;1.90;94.90;;;;;;4984127;28;20062;-90
2021/01/01 01:37:25;;;;;;;153.65;74.78;;;1.90;94.90;;;;;;4973139;28;20027;-91
2021/01/01 01:39:50;;;;;;;155.43;76.22;;;1.90;95.00;;;;;;4989625;28;20038;-92
2021/01/01 01:42:16;;;;;;;148.73;74.32;;;1.80;95.00;;;;;;4967679;28;20031;-92
2021/01/01 01:44:41;;;;;;;145.05;72.00;;;1.90;95.10;;;;;;4972825;28;20037;-91
2021/01/01 01:47:14;;;;;;;157.23;75.72;;;1.80;95.10;;;;;;4973919;28;20027;-92
2021/01/01 01:49:39;;;;;;;140.85;72.03;;;1.80;95.10;;;;;;5005437;28;20146;-91
2021/01/01 01:52:05;;;;;;;167.85;79.75;;;1.80;95.10;;;;;;4973150;28;20126;-91
2021/01/01 01:54:30;;;;;;;146.23;75.45;;;1.80;95.10;;;;;;4972712;28;20031;-91
2021/01/01 01:56:58;;;;;;;145.88;72.75;;;1.80;95.10;;;;;;4972527;28;20031;-91
2021/01/01 01:59:24;;;;;;;176.60;85.60;;;1.80;95.00;;;;;;4972509;28;20047;-91
2021/01/01 02:01:49;;;;;;;199.48;98.45;;;1.70;95.00;;;;;;4971207;28;20097;-91
2021/01/01 02:04:15;;;;;;;222.40;105.13;;;1.70;95.20;;;;;;4994839;28;20070;-92
2021/01/01 02:06:43;;;;;;;215.25;104.45;;;1.70;95.20;;;;;;4983383;28;20494;-91
2021/01/01 02:09:11;;;;;;;226.80;114.30;;;1.80;95.20;;;;;;4979602;28;20035;-91
2021/01/01 02:11:36;;;;;;;235.35;114.30;;;1.80;95.20;;;;;;4971292;28;20069;-91
2021/01/01 02:14:02;;;;;;;220.02;111.15;;;1.70;95.10;;;;;;4964521;28;20125;-92
2021/01/01 02:16:32;;;;;;;230.88;110.10;;;1.80;95.10;;;;;;4987931;28;20023;-91
2021/01/01 02:18:57;;;;;;;213.25;108.20;;;1.70;95.10;;;;;;4975471;28;20031;-91
2021/01/01 02:21:23;;;;;;;202.35;103.47;;;1.70;95.10;;;;;;4983235;28;21891;-91
2021/01/01 02:23:49;;;;;;;197.45;99.65;;;1.70;95.10;;;;;;4977492;28;20027;-91
2021/01/01 02:26:15;;;;;;;201.95;101.40;;;1.60;95.10;;;;;;4976162;28;20029;-92
2021/01/01 02:28:41;;;;;;;211.77;103.65;;;1.50;95.10;;;;;;4991507;28;20098;-91
2021/01/01 02:31:07;;;;;;;222.27;111.25;;;1.50;95.20;;;;;;4986306;28;20117;-91
2021/01/01 02:33:33;;;;;;;237.63;113.85;;;1.40;95.20;;;;;;5009194;28;20042;-91
2021/01/01 02:35:58;;;;;;;232.02;113.40;;;1.40;95.30;;;;;;4975630;28;20023;-91
2021/01/01 02:38:24;;;;;;;227.90;112.43;;;1.40;95.40;;;;;;5006290;28;20030;-91
2021/01/01 02:40:50;;;;;;;230.55;111.80;;;1.40;95.40;;;;;;4976003;28;20094;-91
2021/01/01 02:43:16;;;;;;;233.02;110.88;;;1.40;95.40;;;;;;4974724;28;20034;-92
2021/01/01 02:45:41;;;;;;;247.75;117.63;;;1.40;95.30;;;;;;4975823;28;20031;-91
2021/01/01 02:48:09;;;;;;;190.80;98.90;;;1.40;95.50;;;;;;4963801;28;20114;-91
2021/01/01 02:50:35;;;;;;;218.43;104.85;;;1.30;95.40;;;;;;4995092;28;20102;-90
2021/01/01 02:53:03;;;;;;;202.40;102.72;;;1.30;95.30;;;;;;4973936;28;20154;-92
2021/01/01 02:55:29;;;;;;;195.10;94.88;;;1.30;95.40;;;;;;4964303;28;20559;-91
2021/01/01 02:57:55;;;;;;;189.45;95.95;;;1.20;95.30;;;;;;4976584;28;20128;-91
2021/01/01 03:00:21;;;;;;;181.70;96.57;;;1.10;95.30;;;;;;4972858;28;20047;-91
2021/01/01 03:02:46;;;;;;;172.50;90.30;;;1.10;95.40;;;;;;4969494;28;20032;-92
2021/01/01 03:05:12;;;;;;;191.77;94.88;;;1.00;95.40;;;;;;4975917;28;20046;-92
2021/01/01 03:07:38;;;;;;;193.98;96.10;;;1.00;95.40;;;;;;4974603;28;20491;-92
2021/01/01 03:10:04;;;;;;;213.13;102.53;;;0.90;95.40;;;;;;4975167;28;20030;-91
2021/01/01 03:12:30;;;;;;;196.75;95.05;;;0.80;95.50;;;;;;4975960;28;20042;-91
2021/01/01 03:14:55;;;;;;;211.25;99.20;;;0.80;95.60;;;;;;4973947;28;20023;-91
2021/01/01 03:17:21;;;;;;;228.07;103.75;;;0.70;95.60;;;;;;4992320;28;20050;-91
2021/01/01 03:19:46;;;;;;;214.35;99.60;;;0.80;95.70;;;;;;4975477;28;20365;-91
2021/01/01 03:22:12;;;;;;;211.15;100.40;;;0.80;95.70;;;;;;4975563;28;20810;-91
2021/01/01 03:24:37;;;;;;;199.35;94.22;;;0.80;95.80;;;;;;4975515;28;20078;-90
2021/01/01 03:27:03;;;;;;;210.73;100.50;;;0.80;95.70;;;;;;4975522;28;20089;-91
2021/01/01 03:29:28;;;;;;;211.93;94.88;;;0.80;95.60;;;;;;4975336;28;20034;-90
2021/01/01 03:31:54;;;;;;;226.30;101.95;;;0.70;95.60;;;;;;4975338;28;20056;-90
2021/01/01 03:34:19;;;;;;;227.85;104.43;;;0.70;95.70;;;;;;4975816;28;20061;-91
2021/01/01 03:36:45;;;;;;;217.93;102.57;;;0.70;95.80;;;;;;4980968;28;20042;-91
2021/01/01 03:39:10;;;;;;;222.20;104.20;;;0.70;95.90;;;;;;4978957;28;20035;-90
2021/01/01 03:41:36;;;;;;;248.50;109.18;;;0.70;95.90;;;;;;4979097;28;20106;-91
2021/01/01 03:44:01;;;;;;;232.27;106.45;;;0.80;95.90;;;;;;4974621;28;20030;-91
2021/01/01 03:46:27;;;;;;;244.32;106.43;;;0.80;95.90;;;;;;4975219;28;20035;-90
2021/01/01 03:48:52;;;;;;;223.55;105.53;;;0.80;95.80;;;;;;4977871;28;20037;-90
2021/01/01 03:51:18;;;;;;;238.35;111.47;;;0.80;95.80;;;;;;4975153;28;20423;-91
2021/01/01 03:53:43;;;;;;;272.13;123.43;;;0.80;95.90;;;;;;5006033;28;20038;-91
2021/01/01 03:56:11;;;;;;;293.52;135.52;;;0.80;96.20;;;;;;4973518;28;20033;-91
2021/01/01 03:58:36;;;;;;;298.63;132.93;;;0.80;95.90;;;;;;5007031;28;20522;-91
2021/01/01 04:01:02;;;;;;;280.88;131.07;;;0.90;95.90;;;;;;4991448;28;20054;-91
2021/01/01 04:03:27;;;;;;;291.85;135.57;;;0.90;95.90;;;;;;4973005;28;20030;-91
2021/01/01 04:05:53;;;;;;;306.50;136.38;;;0.90;95.90;;;;;;4963594;28;20034;-91
2021/01/01 04:08:18;;;;;;;285.17;135.57;;;0.90;96.00;;;;;;4984372;28;20110;-91
2021/01/01 04:10:44;;;;;;;317.13;146.02;;;1.00;96.00;;;;;;5006061;28;20027;-91
2021/01/01 04:13:09;;;;;;;313.13;143.55;;;1.00;96.00;;;;;;4974196;28;20043;-91
2021/01/01 04:15:35;;;;;;;349.40;161.85;;;1.00;96.00;;;;;;4973715;28;20553;-92
2021/01/01 04:18:00;;;;;;;391.58;178.48;;;1.10;96.00;;;;;;4975114;28;20041;-91
2021/01/01 04:20:26;;;;;;;393.40;185.00;;;1.20;96.00;;;;;;4973816;28;20031;-92
2021/01/01 04:22:52;;;;;;;408.75;192.85;;;1.20;96.00;;;;;;4974433;28;20126;-91
2021/01/01 04:25:17;;;;;;;420.95;196.40;;;1.20;96.00;;;;;;5003492;28;20077;-91
2021/01/01 04:27:43;;;;;;;408.10;195.48;;;1.30;96.00;;;;;;4973238;28;20030;-91
2021/01/01 04:30:09;;;;;;;441.35;214.90;;;1.40;96.00;;;;;;4974013;28;20039;-91
2021/01/01 04:32:34;;;;;;;448.30;220.23;;;1.50;96.00;;;;;;5005202;28;20129;-91
2021/01/01 04:35:00;;;;;;;421.08;207.15;;;1.50;95.90;;;;;;4972725;28;20110;-91
2021/01/01 04:37:25;;;;;;;428.95;209.70;;;1.50;95.90;;;;;;4974686;28;20022;-91
2021/01/01 04:39:51;;;;;;;425.90;207.15;;;1.50;95.90;;;;;;4962356;28;20031;-91
2021/01/01 04:42:18;;;;;;;385.17;183.02;;;1.60;95.80;;;;;;4970919;28;20122;-92
2021/01/01 04:44:44;;;;;;;378.35;183.00;;;1.50;95.80;;;;;;5006032;28;20054;-92
2021/01/01 04:47:10;;;;;;;400.73;189.65;;;1.50;95.80;;;;;;4974220;28;20027;-91
2021/01/01 04:49:36;;;;;;;407.25;195.38;;;1.50;95.80;;;;;;4988743;28;20033;-91
2021/01/01 04:52:03;;;;;;;383.95;182.20;;;1.50;95.80;;;;;;4970153;28;20027;-91
2021/01/01 04:54:33;;;;;;;375.05;181.10;;;1.50;95.90;;;;;;4968149;28;20121;-90
2021/01/01 04:56:59;;;;;;;366.05;171.55;;;1.50;95.80;;;;;;4966987;28;20031;-91
2021/01/01 04:59:25;;;;;;;366.00;171.93;;;1.50;95.90;;;;;;4973146;28;20121;-90
2021/01/01 05:01:51;;;;;;;377.95;174.48;;;1.50;95.90;;;;;;4972158;28;20153;-91
2021/01/01 05:04:16;;;;;;;367.33;170.18;;;1.50;95.90;;;;;;4985880;28;20137;-91
2021/01/01 05:06:42;;;;;;;313.27;150.23;;;1.50;95.90;;;;;;4975849;28;20459;-91
2021/01/01 05:09:10;;;;;;;336.70;161.13;;;1.50;95.90;;;;;;4973721;28;20094;-90
2021/01/01 05:11:36;;;;;;;303.55;143.27;;;1.60;95.90;;;;;;4970766;28;20410;-91
2021/01/01 05:14:04;;;;;;;317.75;142.82;;;1.50;95.80;;;;;;4974139;28;20117;-91
2021/01/01 05:16:30;;;;;;;296.15;137.25;;;1.50;95.80;;;;;;4964415;28;20058;-91
2021/01/01 05:18:56;;;;;;;278.52;128.13;;;1.60;95.80;;;;;;4972436;28;20448;-91
2021/01/01 05:21:22;;;;;;;271.25;124.85;;;1.60;95.80;;;;;;4959870;28;20027;-91
2021/01/01 05:23:55;;;;;;;277.13;128.07;;;1.50;95.80;;;;;;4973690;28;20022;-91
2021/01/01 05:26:28;;;;;;;255.82;119.15;;;1.60;95.80;;;;;;4972006;28;20479;-92
2021/01/01 05:29:06;;;;;;;243.38;111.95;;;1.60;95.90;;;;;;4989962;28;20114;-91
2021/01/01 05:31:39;;;;;;;245.65;112.82;;;1.60;95.90;;;;;;4967474;28;20022;-92
2021/01/01 05:34:07;;;;;;;237.18;106.88;;;1.60;95.90;;;;;;4964018;28;20028;-92
2021/01/01 05:36:36;;;;;;;225.70;102.97;;;1.60;95.90;;;;;;4973004;28;20050;-92
2021/01/01 05:39:04;;;;;;;204.90;96.35;;;1.70;95.80;;;;;;4974516;28;20023;-91
2021/01/01 05:41:35;;;;;;;211.98;95.07;;;1.70;95.80;;;;;;4972781;28;20459;-91
2021/01/01 05:44:08;;;;;;;188.45;88.47;;;1.70;95.80;;;;;;4973583;28;20035;-92
2021/01/01 05:46:34;;;;;;;191.30;87.82;;;1.70;95.80;;;;;;4973797;28;20088;-92
2021/01/01 05:49:00;;;;;;;192.18;88.25;;;1.70;95.80;;;;;;4969576;28;20034;-91
2021/01/01 05:51:26;;;;;;;190.82;85.68;;;1.60;95.80;;;;;;4971931;28;20027;-91
2021/01/01 05:54:08;;;;;;;185.07;82.78;;;1.70;95.80;;;;;;4976352;28;20046;-91
2021/01/01 05:56:34;;;;;;;183.23;83.05;;;1.60;95.80;;;;;;4974907;28;20078;-91
2021/01/01 05:59:01;;;;;;;165.00;77.20;;;1.60;95.80;;;;;;4976952;28;20125;-91
2021/01/01 06:01:27;;;;;;;160.05;73.15;;;1.60;95.90;;;;;;4979827;28;20050;-92
2021/01/01 06:03:54;;;;;;;160.38;73.97;;;1.60;95.90;;;;;;4972943;28;20034;-91
2021/01/01 06:06:21;;;;;;;170.73;77.28;;;1.60;95.90;;;;;;4976780;28;20031;-91
2021/01/01 06:08:48;;;;;;;156.88;71.50;;;1.50;95.90;;;;;;4976621;28;20077;-91
2021/01/01 06:11:20;;;;;;;157.85;70.82;;;1.60;95.90;;;;;;4988801;28;20162;-91
2021/01/01 06:13:50;;;;;;;162.15;70.00;;;1.50;96.20;;;;;;4976019;28;20041;-91
2021/01/01 06:16:26;;;;;;;153.02;68.18;;;1.50;95.90;;;;;;4988543;28;20122;-91
2021/01/01 06:18:57;;;;;;;148.02;65.38;;;1.50;96.00;;;;;;4976506;28;20031;-91
2021/01/01 06:21:33;;;;;;;143.32;63.58;;;1.50;96.00;;;;;;4976400;28;20077;-91
2021/01/01 06:24:01;;;;;;;160.23;66.38;;;1.50;96.10;;;;;;5009019;28;20077;-91
2021/01/01 06:26:27;;;;;;;151.63;66.38;;;1.40;96.00;;;;;;4974822;28;20050;-91
2021/01/01 06:28:53;;;;;;;145.02;64.00;;;1.50;96.10;;;;;;4990190;28;20035;-91
2021/01/01 06:31:19;;;;;;;142.93;61.85;;;1.50;96.00;;;;;;5007111;28;20073;-91
2021/01/01 06:33:45;;;;;;;146.48;61.90;;;1.40;96.00;;;;;;4975823;28;20049;-92
2021/01/01 06:36:36;;;;;;;139.13;62.13;;;1.50;96.00;;;;;;4972123;28;20035;-91
2021/01/01 06:39:02;;;;;;;131.77;57.53;;;1.50;96.10;;;;;;4985281;28;20046;-91
2021/01/01 06:41:45;;;;;;;135.18;59.33;;;1.50;96.10;;;;;;4976094;28;20027;-91
2021/01/01 06:44:10;;;;;;;134.73;57.42;;;1.40;96.10;;;;;;5008157;28;20043;-91
2021/01/01 06:46:38;;;;;;;134.00;58.25;;;1.40;96.10;;;;;;4977668;28;20034;-91
2021/01/01 06:49:06;;;;;;;122.03;54.78;;;1.50;96.10;;;;;;4975807;28;20080;-92
2021/01/01 06:51:32;;;;;;;126.28;56.38;;;1.40;96.10;;;;;;4977917;28;20026;-92
2021/01/01 06:54:16;;;;;;;112.47;52.80;;;1.50;96.10;;;;;;4977007;28;20042;-92
2021/01/01 06:56:43;;;;;;;118.68;54.55;;;1.50;96.10;;;;;;4974441;28;20484;-91
2021/01/01 06:59:13;;;;;;;117.45;53.90;;;1.40;96.10;;;;;;4978654;28;20089;-92
2021/01/01 07:01:43;;;;;;;123.95;53.80;;;1.40;96.10;;;;;;4967942;28;20027;-92
2021/01/01 07:04:09;;;;;;;130.93;55.70;;;1.50;96.10;;;;;;4975413;28;20090;-92
2021/01/01 07:06:36;;;;;;;120.82;55.72;;;1.40;96.10;;;;;;4975970;28;20027;-92
2021/01/01 07:09:04;;;;;;;111.05;48.40;;;1.40;96.10;;;;;;4975329;28;20034;-92
2021/01/01 07:11:29;;;;;;;116.05;50.58;;;1.40;96.10;;;;;;4998856;28;20063;-93
2021/01/01 07:14:01;;;;;;;109.82;50.60;;;1.40;96.10;;;;;;4980728;28;20116;-92
2021/01/01 07:16:45;;;;;;;112.82;50.80;;;1.40;96.10;;;;;;4973012;28;20087;-92
2021/01/01 07:19:11;;;;;;;109.60;48.85;;;1.40;96.20;;;;;;5008250;28;20662;-92
2021/01/01 07:21:38;;;;;;;115.88;51.28;;;1.40;96.20;;;;;;4975369;28;20091;-93
2021/01/01 07:24:04;;;;;;;115.47;51.60;;;1.40;96.20;;;;;;4988329;28;20027;-92
2021/01/01 07:26:30;;;;;;;109.22;49.05;;;1.40;96.20;;;;;;5002741;28;20118;-92
2021/01/01 07:28:58;;;;;;;112.90;50.80;;;1.40;96.20;;;;;;4977548;28;20058;-93
2021/01/01 07:31:24;;;;;;;111.07;48.40;;;1.40;96.20;;;;;;4973968;28;20031;-94
2021/01/01 07:33:50;;;;;;;108.25;50.50;;;1.30;96.20;;;;;;5007333;28;20066;-90
2021/01/01 07:36:16;;;;;;;112.05;49.90;;;1.30;96.20;;;;;;4975464;28;20035;-91
2021/01/01 07:38:44;;;;;;;113.60;50.63;;;1.30;96.20;;;;;;4974405;28;20027;-91
2021/01/01 07:41:10;;;;;;;114.30;49.78;;;1.30;96.30;;;;;;5006982;28;20099;-92
2021/01/01 07:43:38;;;;;;;126.38;52.85;;;1.40;96.30;;;;;;5007596;28;20053;-91
2021/01/01 07:46:06;;;;;;;116.88;50.55;;;1.40;96.30;;;;;;4975804;28;20015;-91
2021/01/01 07:48:32;;;;;;;105.45;47.10;;;1.40;96.30;;;;;;4970546;28;20510;-92
2021/01/01 07:51:04;;;;;;;114.88;50.35;;;1.50;96.30;;;;;;4973968;28;20030;-92
2021/01/01 07:53:29;;;;;;;106.40;48.53;;;1.50;96.30;;;;;;5007509;28;20372;-92
2021/01/01 07:56:06;;;;;;;116.32;51.25;;;1.50;96.30;;;;;;4971468;28;20034;-91
2021/01/01 07:58:34;;;;;;;118.05;51.10;;;1.60;96.30;;;;;;4963633;28;20027;-92
2021/01/01 08:01:10;;;;;;;107.68;48.92;;;1.60;96.30;;;;;;5003978;28;20522;-91
2021/01/01 08:03:38;;;;;;;108.45;49.63;;;1.70;96.30;;;;;;4972787;28;20023;-91
2021/01/01 08:06:06;;;;;;;110.20;49.13;;;1.70;96.30;;;;;;4975123;28;20066;-92
2021/01/01 08:08:32;;;;;;;109.55;50.60;;;1.70;96.20;;;;;;4974251;28;20050;-91
2021/01/01 08:10:59;;;;;;;111.97;48.30;;;1.70;96.20;;;;;;4970535;28;20055;-91
2021/01/01 08:13:26;;;;;;;110.55;49.47;;;1.80;96.20;;;;;;4975108;28;20042;-92
2021/01/01 08:15:54;;;;;;;109.90;51.95;;;1.90;96.20;;;;;;4974423;28;20030;-91
2021/01/01 08:18:26;;;;;;;104.22;50.10;;;1.90;96.10;;;;;;4962975;28;20097;-91
2021/01/01 08:21:00;;;;;;;99.60;47.25;;;1.90;96.10;;;;;;4968073;28;20062;-92
2021/01/01 08:23:28;;;;;;;101.85;47.92;;;2.00;96.10;;;;;;4974861;28;20084;-92
2021/01/01 08:25:54;;;;;;;100.13;47.15;;;2.00;96.10;;;;;;4973096;28;20085;-92
2021/01/01 08:28:27;;;;;;;109.15;48.30;;;2.00;96.00;;;;;;4972331;28;20107;-93
2021/01/01 08:30:58;;;;;;;98.43;46.97;;;2.10;96.00;;;;;;4980381;28;20105;-92
2021/01/01 08:33:27;;;;;;;98.47;45.95;;;2.10;96.00;;;;;;5004853;28;20038;-92
2021/01/01 08:36:00;;;;;;;87.90;41.17;;;2.10;95.90;;;;;;4965162;28;20783;-91
2021/01/01 08:38:25;;;;;;;96.38;44.45;;;2.20;96.00;;;;;;4974267;28;20038;-92
2021/01/01 08:40:56;;;;;;;99.65;43.03;;;2.10;95.90;;;;;;4968151;28;20037;-92
2021/01/01 08:43:22;;;;;;;91.47;42.63;;;2.20;95.90;;;;;;4960255;28;20023;-92
2021/01/01 08:45:48;;;;;;;101.85;44.83;;;2.30;95.90;;;;;;4972382;28;20102;-92
2021/01/01 08:48:15;;;;;;;97.88;43.63;;;2.30;95.90;;;;;;4980939;28;20034;-90
2021/01/01 08:50:51;;;;;;;91.70;42.40;;;2.30;95.90;;;;;;4979456;28;20030;-93
2021/01/01 08:53:20;;;;;;;97.43;43.47;;;2.40;95.90;;;;;;4989907;28;20567;-92
2021/01/01 08:55:57;;;;;;;92.45;44.53;;;2.50;95.90;;;;;;4967796;28;20395;-92
2021/01/01 08:58:23;;;;;;;101.32;44.38;;;2.60;95.90;;;;;;4972023;28;20026;-92
2021/01/01 09:00:48;;;;;;;94.07;44.15;;;2.60;95.80;;;;;;4980751;28;20521;-92
2021/01/01 09:03:16;;;;;;;84.32;40.03;;;2.80;95.80;;;;;;5006676;28;20526;-92
2021/01/01 09:05:42;;;;;;;93.70;44.10;;;2.80;95.80;;;;;;4973956;28;20023;-92
2021/01/01 09:08:20;;;;;;;90.63;41.40;;;2.90;95.80;;;;;;4967277;28;20030;-90
2021/01/01 09:10:47;;;;;;;91.82;41.78;;;3.00;95.70;;;;;;4973736;28;20031;-90
2021/01/01 09:13:26;;;;;;;83.97;39.72;;;3.10;95.60;;;;;;5003298;28;20034;-91
2021/01/01 09:16:08;;;;;;;73.93;35.90;;;3.10;95.50;;;;;;4961172;28;20027;-91
2021/01/01 09:18:33;;;;;;;80.75;38.63;;;3.20;95.50;;;;;;4970450;28;20085;-90
2021/01/01 09:21:16;;;;;;;71.72;35.03;;;3.20;95.40;;;;;;4962172;28;20023;-91
2021/01/01 09:23:51;;;;;;;74.60;34.45;;;3.30;95.40;;;;;;4969701;28;20085;-91
2021/01/01 09:26:27;;;;;;;68.57;33.90;;;3.30;95.30;;;;;;4972446;28;20063;-90
2021/01/01 09:29:07;;;;;;;73.65;33.08;;;3.30;95.20;;;;;;4973964;28;20042;-91
2021/01/01 09:31:34;;;;;;;69.80;33.50;;;3.30;95.20;;;;;;4973322;28;20039;-91
2021/01/01 09:34:02;;;;;;;71.63;34.85;;;3.30;95.20;;;;;;4969813;28;20047;-90
2021/01/01 09:36:32;;;;;;;68.25;30.50;;;3.30;95.20;;;;;;4975375;28;20027;-90
2021/01/01 09:38:59;;;;;;;70.80;33.17;;;3.30;95.20;;;;;;4972055;28;20031;-90
2021/01/01 09:41:25;;;;;;;69.22;31.83;;;3.40;95.20;;;;;;4970527;28;20023;-90
2021/01/01 09:43:50;;;;;;;58.15;29.85;;;3.40;95.20;;;;;;4970120;28;20027;-91
2021/01/01 09:46:16;;;;;;;63.17;28.80;;;3.40;95.20;;;;;;4974444;28;20089;-90
2021/01/01 09:48:41;;;;;;;58.30;27.77;;;3.40;95.10;;;;;;4964893;28;20038;-90
2021/01/01 09:51:07;;;;;;;63.20;29.80;;;3.50;95.20;;;;;;4965385;28;20073;-90
2021/01/01 09:53:32;;;;;;;60.83;29.58;;;3.60;95.30;;;;;;4971352;28;20043;-90
2021/01/01 09:55:58;;;;;;;57.22;27.10;;;3.70;95.30;;;;;;4972485;28;20027;-90
2021/01/01 09:58:23;;;;;;;50.25;24.52;;;3.80;95.10;;;;;;4972925;28;20395;-90
2021/01/01 10:00:49;;;;;;;47.47;21.42;;;3.90;95.10;;;;;;4971355;28;20187;-89
2021/01/01 10:03:14;;;;;;;41.85;20.65;;;4.00;95.00;;;;;;4965059;28;20027;-89
2021/01/01 10:05:40;;;;;;;47.83;21.83;;;4.10;95.10;;;;;;4973848;28;20022;-89
2021/01/01 10:08:05;;;;;;;44.80;21.95;;;4.20;95.10;;;;;;4973476;28;20027;-89
2021/01/01 10:10:33;;;;;;;36.50;17.98;;;4.40;95.10;;;;;;4982352;28;20157;-88
2021/01/01 10:13:01;;;;;;;40.10;19.20;;;4.60;95.00;;;;;;4972795;28;20086;-88
2021/01/01 10:15:27;;;;;;;32.50;16.38;;;4.70;94.90;;;;;;4974355;28;20030;-89
2021/01/01 10:17:52;;;;;;;30.83;14.68;;;4.90;94.90;;;;;;4975377;28;20030;-89
2021/01/01 10:20:18;;;;;;;22.52;12.52;;;5.00;94.60;;;;;;4970838;28;20028;-88
2021/01/01 10:22:43;;;;;;;30.55;14.20;;;5.10;94.60;;;;;;4972508;28;20062;-89
2021/01/01 10:25:10;;;;;;;27.08;12.75;;;5.10;94.30;;;;;;4973909;28;20062;-89
2021/01/01 10:27:35;;;;;;;26.90;13.57;;;5.10;94.10;;;;;;4980823;28;20527;-89
2021/01/01 10:30:01;;;;;;;23.13;11.70;;;5.10;94.10;;;;;;4970923;28;20031;-90
2021/01/01 10:32:30;;;;;;;19.35;12.07;;;5.00;94.10;;;;;;4970029;28;20034;-90
2021/01/01 10:34:55;;;;;;;24.48;12.27;;;5.00;94.20;;;;;;4969350;28;20111;-90
2021/01/01 10:37:21;;;;;;;20.23;10.90;;;5.10;94.20;;;;;;4981770;28;20077;-89
2021/01/01 10:39:46;;;;;;;23.30;11.38;;;5.10;94.30;;;;;;4963078;28;20030;-89
2021/01/01 10:42:12;;;;;;;22.60;12.23;;;5.00;94.20;;;;;;5005331;28;20117;-89
2021/01/01 10:44:38;;;;;;;24.65;11.73;;;5.00;94.10;;;;;;4984716;28;20031;-89
2021/01/01 10:47:03;;;;;;;20.05;10.35;;;5.10;94.20;;;;;;4976183;28;20101;-90
2021/01/01 10:49:29;;;;;;;20.42;11.07;;;5.20;94.30;;;;;;4963205;28;20027;-90
2021/01/01 10:51:58;;;;;;;19.80;10.85;;;5.20;94.20;;;;;;4983365;28;20437;-90
2021/01/01 10:54:25;;;;;;;16.02;9.82;;;5.30;94.00;;;;;;5008430;28;20136;-90
2021/01/01 10:56:51;;;;;;;21.95;11.52;;;5.30;94.00;;;;;;4976158;28;20491;-89
2021/01/01 10:59:16;;;;;;;17.70;9.50;;;5.40;94.00;;;;;;4975805;28;20035;-89
2021/01/01 11:01:42;;;;;;;17.88;10.75;;;5.30;93.90;;;;;;5008814;28;20475;-89
2021/01/01 11:04:07;;;;;;;18.20;9.18;;;5.30;93.90;;;;;;4965114;28;20031;-89
2021/01/01 11:06:37;;;;;;;21.73;11.05;;;5.40;94.00;;;;;;4977306;28;20438;-89
2021/01/01 11:09:03;;;;;;;24.52;10.07;;;5.40;93.90;;;;;;4973028;28;20027;-89
2021/01/01 11:11:28;;;;;;;15.30;7.78;;;5.40;93.90;;;;;;4974187;28;20023;-88
2021/01/01 12:25:28;;;;;;;15.77;7.75;;;6.00;92.40;;;;;;4977393;28;20031;-92
2021/01/01 12:28:00;;;;;;;13.88;7.25;;;6.10;92.30;;;;;;4991174;28;20510;-91
2021/01/01 12:30:27;;;;;;;14.48;6.55;;;6.10;92.30;;;;;;5008401;28;20026;-90
2021/01/01 12:32:53;;;;;;;11.07;5.68;;;6.10;92.30;;;;;;4971832;28;20109;-91
2021/01/01 12:35:19;;;;;;;13.65;6.88;;;6.10;92.30;;;;;;4980737;28;20023;-91
2021/01/01 12:37:46;;;;;;;12.32;7.00;;;6.00;92.10;;;;;;4978323;28;20138;-91
2021/01/01 12:40:12;;;;;;;11.13;6.72;;;6.00;92.10;;;;;;4973391;28;20046;-91
2021/01/01 12:42:38;;;;;;;13.18;6.78;;;6.00;92.20;;;;;;4972824;28;20027;-90
2021/01/01 12:45:05;;;;;;;14.57;7.25;;;5.90;92.30;;;;;;4976996;28;20031;-90
2021/01/01 12:47:33;;;;;;;13.73;7.05;;;5.90;92.30;;;;;;5014221;28;20093;-91
2021/01/01 12:49:59;;;;;;;11.48;6.93;;;5.90;92.60;;;;;;5001915;28;20019;-91
2021/01/01 12:52:25;;;;;;;13.00;7.05;;;5.90;92.40;;;;;;4973586;28;20037;-90
2021/01/01 12:54:50;;;;;;;12.05;6.97;;;5.80;92.30;;;;;;4976869;28;20034;-90
2021/01/01 12:57:16;;;;;;;14.30;8.02;;;5.80;92.40;;;;;;5008901;28;20418;-90
2021/01/01 12:59:41;;;;;;;13.52;6.80;;;5.90;92.50;;;;;;5003152;28;20062;-90
2021/01/01 13:02:07;;;;;;;17.02;8.18;;;6.00;92.50;;;;;;4977095;28;20722;-90
2021/01/01 13:04:35;;;;;;;15.85;7.53;;;6.10;92.40;;;;;;4972596;28;20034;-91
2021/01/01 13:07:02;;;;;;;15.02;7.88;;;6.10;92.30;;;;;;4977688;28;20035;-90
2021/01/01 13:09:31;;;;;;;11.90;7.32;;;6.20;92.20;;;;;;4973660;28;20391;-91
2021/01/01 13:11:58;;;;;;;12.73;6.28;;;6.20;92.10;;;;;;4961584;28;20022;-90
2021/01/01 13:14:23;;;;;;;15.60;7.38;;;6.20;92.10;;;;;;4971785;28;20031;-90
2021/01/01 13:16:49;;;;;;;13.50;7.03;;;6.20;92.20;;;;;;4973559;28;20030;-91
2021/01/01 13:19:15;;;;;;;13.43;7.05;;;6.20;92.00;;;;;;4977828;28;20058;-90
2021/01/01 13:21:44;;;;;;;13.98;6.93;;;6.20;91.90;;;;;;5006962;28;20023;-93
2021/01/01 13:24:10;;;;;;;12.18;7.43;;;6.20;92.00;;;;;;5005129;28;20106;-91
2021/01/01 13:26:36;;;;;;;15.63;7.50;;;6.10;92.10;;;;;;4965229;28;20140;-91
2021/01/01 13:29:03;;;;;;;10.80;6.38;;;6.10;92.10;;;;;;4963891;28;20089;-90
2021/01/01 13:31:39;;;;;;;13.75;6.90;;;6.10;92.00;;;;;;4970430;28;20026;-91
2021/01/01 13:34:07;;;;;;;15.55;6.68;;;6.10;92.00;;;;;;4969932;28;20035;-90
2021/01/01 13:36:33;;;;;;;13.07;6.13;;;6.10;92.10;;;;;;5006224;28;20029;-91
2021/01/01 13:38:59;;;;;;;16.35;6.57;;;6.10;92.10;;;;;;4973319;28;20538;-91
2021/01/01 13:41:24;;;;;;;10.75;5.82;;;6.00;92.10;;;;;;4985817;28;20065;-90